sensor_id;sensor_type;location;lat;lon;timestamp;temperature;humidity
9810;DHT22;4944;52.514;13.192;2023-11-21T00:01:06;9.20;99.90
9810;DHT22;4944;52.514;13.192;2023-11-21T00:03:35;9.20;99.90
9810;DHT22;4944;52.514;13.192;2023-11-21T00:06:02;9.20;99.90
9810;DHT22;4944;52.514;13.192;2023-11-21T00:08:29;9.20;99.90
9810;DHT22;4944;52.514;13.192;2023-11-21T00:10:56;9.10;99.90
9810;DHT22;4944;52.514;13.192;2023-11-21T00:13:26;9.10;99.90
9810;DHT22;4944;52.514;13.192;2023-11-21T00:15:52;9.10;99.90
9810;DHT22;4944;52.514;13.192;2023-11-21T00:18:20;9.10;99.90
9810;DHT22;4944;52.514;13.192;2023-11-21T00:20:48;9.10;99.90
9810;DHT22;4944;52.514;13.192;2023-11-21T00:23:15;9.00;99.90
9810;DHT22;4944;52.514;13.192;2023-11-21T00:25:43;9.00;99.90
9810;DHT22;4944;52.514;13.192;2023-11-21T00:28:10;9.00;99.90
9810;DHT22;4944;52.514;13.192;2023-11-21T00:30:37;8.90;99.90
9810;DHT22;4944;52.514;13.192;2023-11-21T00:33:04;8.90;99.90
9810;DHT22;4944;52.514;13.192;2023-11-21T00:35:31;8.80;99.90
9810;DHT22;4944;52.514;13.192;2023-11-21T00:37:59;8.80;99.90
9810;DHT22;4944;52.514;13.192;2023-11-21T00:40:26;8.80;99.90
9810;DHT22;4944;52.514;13.192;2023-11-21T00:42:53;8.80;99.90
9810;DHT22;4944;52.514;13.192;2023-11-21T00:45:21;8.80;99.90
9810;DHT22;4944;52.514;13.192;2023-11-21T00:47:48;8.80;99.90
9810;DHT22;4944;52.514;13.192;2023-11-21T00:50:15;8.70;99.90
9810;DHT22;4944;52.514;13.192;2023-11-21T00:52:42;8.70;99.90
9810;DHT22;4944;52.514;13.192;2023-11-21T00:55:10;8.60;99.90
9810;DHT22;4944;52.514;13.192;2023-11-21T00:57:37;8.60;99.90
9810;DHT22;4944;52.514;13.192;2023-11-21T01:00:05;8.60;99.90
9810;DHT22;4944;52.514;13.192;2023-11-21T01:02:36;8.60;99.90
9810;DHT22;4944;52.514;13.192;2023-11-21T01:05:03;8.50;99.90
9810;DHT22;4944;52.514;13.192;2023-11-21T01:07:30;8.50;99.90
9810;DHT22;4944;52.514;13.192;2023-11-21T01:09:57;8.50;99.90
9810;DHT22;4944;52.514;13.192;2023-11-21T01:12:26;8.50;99.90
9810;DHT22;4944;52.514;13.192;2023-11-21T01:14:53;8.50;99.90
9810;DHT22;4944;52.514;13.192;2023-11-21T01:17:20;8.50;99.90
9810;DHT22;4944;52.514;13.192;2023-11-21T01:19:48;8.50;99.90
9810;DHT22;4944;52.514;13.192;2023-11-21T01:22:15;8.50;99.90
9810;DHT22;4944;52.514;13.192;2023-11-21T01:24:43;8.50;99.90
9810;DHT22;4944;52.514;13.192;2023-11-21T01:27:10;8.50;99.90
9810;DHT22;4944;52.514;13.192;2023-11-21T01:29:38;8.40;99.90
9810;DHT22;4944;52.514;13.192;2023-11-21T01:32:05;8.40;99.90
9810;DHT22;4944;52.514;13.192;2023-11-21T01:34:33;8.40;99.90
9810;DHT22;4944;52.514;13.192;2023-11-21T01:37:00;8.50;99.90
9810;DHT22;4944;52.514;13.192;2023-11-21T01:39:30;8.50;99.90
9810;DHT22;4944;52.514;13.192;2023-11-21T01:41:57;8.50;99.90
9810;DHT22;4944;52.514;13.192;2023-11-21T01:44:24;8.50;99.90
9810;DHT22;4944;52.514;13.192;2023-11-21T01:46:52;8.50;99.90
9810;DHT22;4944;52.514;13.192;2023-11-21T01:49:20;8.50;99.90
9810;DHT22;4944;52.514;13.192;2023-11-21T01:51:49;8.50;99.90
9810;DHT22;4944;52.514;13.192;2023-11-21T01:54:16;8.50;99.90
9810;DHT22;4944;52.514;13.192;2023-11-21T01:56:45;8.40;99.90
9810;DHT22;4944;52.514;13.192;2023-11-21T01:59:15;8.40;99.90
9810;DHT22;4944;52.514;13.192;2023-11-21T02:01:43;8.40;99.90
9810;DHT22;4944;52.514;13.192;2023-11-21T02:04:11;8.40;99.90
9810;DHT22;4944;52.514;13.192;2023-11-21T02:06:38;8.40;99.90
9810;DHT22;4944;52.514;13.192;2023-11-21T02:09:05;8.40;99.90
9810;DHT22;4944;52.514;13.192;2023-11-21T02:11:32;8.40;99.90
9810;DHT22;4944;52.514;13.192;2023-11-21T02:14:00;8.30;99.90
9810;DHT22;4944;52.514;13.192;2023-11-21T02:16:27;8.30;99.90
9810;DHT22;4944;52.514;13.192;2023-11-21T02:18:57;8.30;99.90
9810;DHT22;4944;52.514;13.192;2023-11-21T02:21:26;8.30;99.90
9810;DHT22;4944;52.514;13.192;2023-11-21T02:23:56;8.30;99.90
9810;DHT22;4944;52.514;13.192;2023-11-21T02:26:22;8.30;99.90
9810;DHT22;4944;52.514;13.192;2023-11-21T02:28:51;8.20;99.90
9810;DHT22;4944;52.514;13.192;2023-11-21T02:31:18;8.20;99.90
9810;DHT22;4944;52.514;13.192;2023-11-21T02:33:46;8.10;99.90
9810;DHT22;4944;52.514;13.192;2023-11-21T02:36:15;8.10;99.90
9810;DHT22;4944;52.514;13.192;2023-11-21T02:38:42;8.00;99.90
9810;DHT22;4944;52.514;13.192;2023-11-21T02:41:10;8.00;99.90
9810;DHT22;4944;52.514;13.192;2023-11-21T02:43:37;8.00;99.90
9810;DHT22;4944;52.514;13.192;2023-11-21T02:46:04;8.10;99.90
9810;DHT22;4944;52.514;13.192;2023-11-21T02:48:31;8.00;99.90
9810;DHT22;4944;52.514;13.192;2023-11-21T02:50:58;8.00;99.90
9810;DHT22;4944;52.514;13.192;2023-11-21T02:53:25;8.10;99.90
9810;DHT22;4944;52.514;13.192;2023-11-21T02:55:52;8.00;99.90
9810;DHT22;4944;52.514;13.192;2023-11-21T02:58:20;8.00;99.90
9810;DHT22;4944;52.514;13.192;2023-11-21T03:00:47;8.00;99.90
9810;DHT22;4944;52.514;13.192;2023-11-21T03:03:13;8.00;99.90
9810;DHT22;4944;52.514;13.192;2023-11-21T03:05:40;8.00;99.90
9810;DHT22;4944;52.514;13.192;2023-11-21T03:08:07;8.00;99.90
9810;DHT22;4944;52.514;13.192;2023-11-21T03:10:34;8.00;99.90
9810;DHT22;4944;52.514;13.192;2023-11-21T03:13:01;8.00;99.90
9810;DHT22;4944;52.514;13.192;2023-11-21T03:15:29;8.00;99.90
9810;DHT22;4944;52.514;13.192;2023-11-21T03:17:58;8.00;99.90
9810;DHT22;4944;52.514;13.192;2023-11-21T03:20:25;8.00;99.90
9810;DHT22;4944;52.514;13.192;2023-11-21T03:22:52;7.90;99.90
9810;DHT22;4944;52.514;13.192;2023-11-21T03:25:19;7.90;99.90
9810;DHT22;4944;52.514;13.192;2023-11-21T03:27:46;7.90;99.90
9810;DHT22;4944;52.514;13.192;2023-11-21T03:30:13;7.90;99.90
9810;DHT22;4944;52.514;13.192;2023-11-21T03:32:41;7.90;99.90
9810;DHT22;4944;52.514;13.192;2023-11-21T03:35:08;7.90;99.90
9810;DHT22;4944;52.514;13.192;2023-11-21T03:37:35;7.90;99.90
9810;DHT22;4944;52.514;13.192;2023-11-21T03:40:05;7.90;99.90
9810;DHT22;4944;52.514;13.192;2023-11-21T03:42:33;7.90;99.90
9810;DHT22;4944;52.514;13.192;2023-11-21T03:45:00;8.00;99.90
9810;DHT22;4944;52.514;13.192;2023-11-21T03:47:28;8.00;99.90
9810;DHT22;4944;52.514;13.192;2023-11-21T03:49:56;8.00;99.90
9810;DHT22;4944;52.514;13.192;2023-11-21T03:52:24;8.00;99.90
9810;DHT22;4944;52.514;13.192;2023-11-21T03:54:52;8.00;99.90
9810;DHT22;4944;52.514;13.192;2023-11-21T03:57:20;8.00;99.90
9810;DHT22;4944;52.514;13.192;2023-11-21T03:59:47;7.90;99.90
9810;DHT22;4944;52.514;13.192;2023-11-21T04:02:14;7.90;99.90
9810;DHT22;4944;52.514;13.192;2023-11-21T04:04:42;7.80;99.90
9810;DHT22;4944;52.514;13.192;2023-11-21T04:07:11;7.80;99.90
9810;DHT22;4944;52.514;13.192;2023-11-21T04:09:39;7.70;99.90
9810;DHT22;4944;52.514;13.192;2023-11-21T04:12:07;7.70;99.90
9810;DHT22;4944;52.514;13.192;2023-11-21T04:14:35;7.70;99.90
9810;DHT22;4944;52.514;13.192;2023-11-21T04:17:02;7.70;99.90
9810;DHT22;4944;52.514;13.192;2023-11-21T04:19:29;7.70;99.90
9810;DHT22;4944;52.514;13.192;2023-11-21T04:21:56;7.70;99.90
9810;DHT22;4944;52.514;13.192;2023-11-21T04:24:24;7.70;99.90
9810;DHT22;4944;52.514;13.192;2023-11-21T04:26:51;7.70;99.90
9810;DHT22;4944;52.514;13.192;2023-11-21T04:29:19;7.70;99.90
9810;DHT22;4944;52.514;13.192;2023-11-21T04:31:46;7.70;99.90
9810;DHT22;4944;52.514;13.192;2023-11-21T04:34:14;7.70;99.90
9810;DHT22;4944;52.514;13.192;2023-11-21T04:36:41;7.70;99.90
9810;DHT22;4944;52.514;13.192;2023-11-21T04:39:08;7.80;99.90
9810;DHT22;4944;52.514;13.192;2023-11-21T04:41:36;7.70;99.90
9810;DHT22;4944;52.514;13.192;2023-11-21T04:44:05;7.70;99.90
9810;DHT22;4944;52.514;13.192;2023-11-21T04:46:32;7.70;99.90
9810;DHT22;4944;52.514;13.192;2023-11-21T04:48:59;7.70;99.90
9810;DHT22;4944;52.514;13.192;2023-11-21T04:51:26;7.60;99.90
9810;DHT22;4944;52.514;13.192;2023-11-21T04:53:53;7.60;99.90
9810;DHT22;4944;52.514;13.192;2023-11-21T04:56:20;7.70;99.90
9810;DHT22;4944;52.514;13.192;2023-11-21T04:58:48;7.70;99.90
9810;DHT22;4944;52.514;13.192;2023-11-21T05:01:15;7.70;99.90
9810;DHT22;4944;52.514;13.192;2023-11-21T05:03:42;7.70;99.90
9810;DHT22;4944;52.514;13.192;2023-11-21T05:06:10;7.70;99.90
9810;DHT22;4944;52.514;13.192;2023-11-21T05:08:35;7.70;99.90
9810;DHT22;4944;52.514;13.192;2023-11-21T05:11:03;7.70;99.90
9810;DHT22;4944;52.514;13.192;2023-11-21T05:13:32;7.70;99.90
9810;DHT22;4944;52.514;13.192;2023-11-21T05:16:01;7.70;99.90
9810;DHT22;4944;52.514;13.192;2023-11-21T05:18:32;7.70;99.90
9810;DHT22;4944;52.514;13.192;2023-11-21T05:20:59;7.60;99.90
9810;DHT22;4944;52.514;13.192;2023-11-21T05:23:26;7.60;99.90
9810;DHT22;4944;52.514;13.192;2023-11-21T05:25:53;7.60;99.90
9810;DHT22;4944;52.514;13.192;2023-11-21T05:28:22;7.60;99.90
9810;DHT22;4944;52.514;13.192;2023-11-21T05:30:48;7.60;99.90
9810;DHT22;4944;52.514;13.192;2023-11-21T05:33:17;7.60;99.90
9810;DHT22;4944;52.514;13.192;2023-11-21T05:35:44;7.50;99.90
9810;DHT22;4944;52.514;13.192;2023-11-21T05:38:11;7.50;99.90
9810;DHT22;4944;52.514;13.192;2023-11-21T05:40:38;7.50;99.90
9810;DHT22;4944;52.514;13.192;2023-11-21T05:43:05;7.60;99.90
9810;DHT22;4944;52.514;13.192;2023-11-21T05:45:32;7.60;99.90
9810;DHT22;4944;52.514;13.192;2023-11-21T05:47:59;7.60;99.90
9810;DHT22;4944;52.514;13.192;2023-11-21T05:50:27;7.60;99.90
9810;DHT22;4944;52.514;13.192;2023-11-21T05:52:54;7.60;99.90
9810;DHT22;4944;52.514;13.192;2023-11-21T05:55:22;7.50;99.90
9810;DHT22;4944;52.514;13.192;2023-11-21T05:57:51;7.50;99.90
9810;DHT22;4944;52.514;13.192;2023-11-21T06:00:18;7.50;99.90
9810;DHT22;4944;52.514;13.192;2023-11-21T06:02:47;7.40;99.90
9810;DHT22;4944;52.514;13.192;2023-11-21T06:05:17;7.40;99.90
9810;DHT22;4944;52.514;13.192;2023-11-21T06:07:45;7.40;99.90
9810;DHT22;4944;52.514;13.192;2023-11-21T06:10:12;7.40;99.90
9810;DHT22;4944;52.514;13.192;2023-11-21T06:12:40;7.30;99.90
9810;DHT22;4944;52.514;13.192;2023-11-21T06:15:09;7.30;99.90
9810;DHT22;4944;52.514;13.192;2023-11-21T06:17:39;7.30;99.90
9810;DHT22;4944;52.514;13.192;2023-11-21T06:20:08;7.30;99.90
9810;DHT22;4944;52.514;13.192;2023-11-21T06:22:36;7.40;99.90
9810;DHT22;4944;52.514;13.192;2023-11-21T06:25:05;7.40;99.90
9810;DHT22;4944;52.514;13.192;2023-11-21T06:27:33;7.30;99.90
9810;DHT22;4944;52.514;13.192;2023-11-21T06:30:00;7.30;99.90
9810;DHT22;4944;52.514;13.192;2023-11-21T06:32:27;7.30;99.90
9810;DHT22;4944;52.514;13.192;2023-11-21T06:34:55;7.20;99.90
9810;DHT22;4944;52.514;13.192;2023-11-21T06:37:24;7.20;99.90
9810;DHT22;4944;52.514;13.192;2023-11-21T06:39:50;7.30;99.90
9810;DHT22;4944;52.514;13.192;2023-11-21T06:42:19;7.20;99.90
9810;DHT22;4944;52.514;13.192;2023-11-21T06:44:47;7.30;99.90
9810;DHT22;4944;52.514;13.192;2023-11-21T06:47:14;7.30;99.90
9810;DHT22;4944;52.514;13.192;2023-11-21T06:49:42;7.30;99.90
9810;DHT22;4944;52.514;13.192;2023-11-21T06:52:09;7.20;99.90
9810;DHT22;4944;52.514;13.192;2023-11-21T06:54:37;7.20;99.90
9810;DHT22;4944;52.514;13.192;2023-11-21T06:57:04;7.20;99.90
9810;DHT22;4944;52.514;13.192;2023-11-21T06:59:32;7.20;99.90
9810;DHT22;4944;52.514;13.192;2023-11-21T07:01:59;7.20;99.90
9810;DHT22;4944;52.514;13.192;2023-11-21T07:04:26;7.20;99.90
9810;DHT22;4944;52.514;13.192;2023-11-21T07:06:53;7.20;99.90
9810;DHT22;4944;52.514;13.192;2023-11-21T07:09:20;7.20;99.90
9810;DHT22;4944;52.514;13.192;2023-11-21T07:11:48;7.20;99.90
9810;DHT22;4944;52.514;13.192;2023-11-21T07:14:15;7.20;99.90
9810;DHT22;4944;52.514;13.192;2023-11-21T07:16:43;7.20;99.90
9810;DHT22;4944;52.514;13.192;2023-11-21T07:19:10;7.20;99.90
9810;DHT22;4944;52.514;13.192;2023-11-21T07:21:38;7.20;99.90
9810;DHT22;4944;52.514;13.192;2023-11-21T07:24:07;7.20;99.90
9810;DHT22;4944;52.514;13.192;2023-11-21T07:26:34;7.20;99.90
9810;DHT22;4944;52.514;13.192;2023-11-21T07:29:02;7.20;99.90
9810;DHT22;4944;52.514;13.192;2023-11-21T07:31:29;7.20;99.90
9810;DHT22;4944;52.514;13.192;2023-11-21T07:34:00;7.20;99.90
9810;DHT22;4944;52.514;13.192;2023-11-21T07:36:27;7.20;99.90
9810;DHT22;4944;52.514;13.192;2023-11-21T07:38:54;7.20;99.90
9810;DHT22;4944;52.514;13.192;2023-11-21T07:41:21;7.20;99.90
9810;DHT22;4944;52.514;13.192;2023-11-21T07:43:48;7.20;99.90
9810;DHT22;4944;52.514;13.192;2023-11-21T07:46:15;7.20;99.90
9810;DHT22;4944;52.514;13.192;2023-11-21T07:48:42;7.20;99.90
9810;DHT22;4944;52.514;13.192;2023-11-21T07:51:10;7.20;99.90
9810;DHT22;4944;52.514;13.192;2023-11-21T07:53:38;7.20;99.90
9810;DHT22;4944;52.514;13.192;2023-11-21T07:56:07;7.20;99.90
9810;DHT22;4944;52.514;13.192;2023-11-21T07:58:34;7.20;99.90
9810;DHT22;4944;52.514;13.192;2023-11-21T08:01:01;7.20;99.90
9810;DHT22;4944;52.514;13.192;2023-11-21T08:03:28;7.30;99.90
9810;DHT22;4944;52.514;13.192;2023-11-21T08:05:56;7.30;99.90
9810;DHT22;4944;52.514;13.192;2023-11-21T08:08:24;7.20;99.90
9810;DHT22;4944;52.514;13.192;2023-11-21T08:10:51;7.20;99.90
9810;DHT22;4944;52.514;13.192;2023-11-21T08:13:22;7.20;99.90
9810;DHT22;4944;52.514;13.192;2023-11-21T08:15:49;7.20;99.90
9810;DHT22;4944;52.514;13.192;2023-11-21T08:18:16;7.20;99.90
9810;DHT22;4944;52.514;13.192;2023-11-21T08:20:43;7.20;99.90
9810;DHT22;4944;52.514;13.192;2023-11-21T08:23:13;7.20;99.90
9810;DHT22;4944;52.514;13.192;2023-11-21T08:25:43;7.20;99.90
9810;DHT22;4944;52.514;13.192;2023-11-21T08:28:10;7.20;99.90
9810;DHT22;4944;52.514;13.192;2023-11-21T08:30:37;7.30;99.90
9810;DHT22;4944;52.514;13.192;2023-11-21T08:33:04;7.20;99.90
9810;DHT22;4944;52.514;13.192;2023-11-21T08:35:31;7.20;99.90
9810;DHT22;4944;52.514;13.192;2023-11-21T08:37:58;7.20;99.90
9810;DHT22;4944;52.514;13.192;2023-11-21T08:40:25;7.20;99.90
9810;DHT22;4944;52.514;13.192;2023-11-21T08:42:53;7.20;99.90
9810;DHT22;4944;52.514;13.192;2023-11-21T08:45:20;7.20;99.90
9810;DHT22;4944;52.514;13.192;2023-11-21T08:47:48;7.20;99.90
9810;DHT22;4944;52.514;13.192;2023-11-21T08:50:16;7.10;99.90
9810;DHT22;4944;52.514;13.192;2023-11-21T08:52:44;7.20;99.90
9810;DHT22;4944;52.514;13.192;2023-11-21T08:55:12;7.20;99.90
9810;DHT22;4944;52.514;13.192;2023-11-21T08:57:40;7.20;99.90
9810;DHT22;4944;52.514;13.192;2023-11-21T09:00:09;7.20;99.90
9810;DHT22;4944;52.514;13.192;2023-11-21T09:02:37;7.20;99.90
9810;DHT22;4944;52.514;13.192;2023-11-21T09:05:05;7.20;99.90
9810;DHT22;4944;52.514;13.192;2023-11-21T09:07:32;7.20;99.90
9810;DHT22;4944;52.514;13.192;2023-11-21T09:09:59;7.20;99.90
9810;DHT22;4944;52.514;13.192;2023-11-21T09:12:26;7.20;99.90
9810;DHT22;4944;52.514;13.192;2023-11-21T09:14:53;7.20;99.90
9810;DHT22;4944;52.514;13.192;2023-11-21T09:17:21;7.20;99.90
9810;DHT22;4944;52.514;13.192;2023-11-21T09:19:48;7.20;99.90
9810;DHT22;4944;52.514;13.192;2023-11-21T09:22:17;7.20;99.90
9810;DHT22;4944;52.514;13.192;2023-11-21T09:24:44;7.20;99.90
9810;DHT22;4944;52.514;13.192;2023-11-21T09:27:10;7.10;99.90
9810;DHT22;4944;52.514;13.192;2023-11-21T09:29:37;7.20;99.90
9810;DHT22;4944;52.514;13.192;2023-11-21T09:32:05;7.10;99.90
9810;DHT22;4944;52.514;13.192;2023-11-21T09:34:35;7.10;99.90
9810;DHT22;4944;52.514;13.192;2023-11-21T09:37:04;7.10;99.90
9810;DHT22;4944;52.514;13.192;2023-11-21T09:39:31;7.20;99.90
9810;DHT22;4944;52.514;13.192;2023-11-21T09:42:04;7.20;99.90
9810;DHT22;4944;52.514;13.192;2023-11-21T09:44:35;7.20;99.90
9810;DHT22;4944;52.514;13.192;2023-11-21T09:47:03;7.20;99.90
9810;DHT22;4944;52.514;13.192;2023-11-21T09:49:35;7.30;99.90
9810;DHT22;4944;52.514;13.192;2023-11-21T09:52:04;7.30;99.90
9810;DHT22;4944;52.514;13.192;2023-11-21T09:54:34;7.30;99.90
9810;DHT22;4944;52.514;13.192;2023-11-21T09:57:02;7.30;99.90
9810;DHT22;4944;52.514;13.192;2023-11-21T09:59:30;7.30;99.90
9810;DHT22;4944;52.514;13.192;2023-11-21T10:01:58;7.30;99.90
9810;DHT22;4944;52.514;13.192;2023-11-21T10:04:25;7.30;99.90
9810;DHT22;4944;52.514;13.192;2023-11-21T10:06:54;7.30;99.90
9810;DHT22;4944;52.514;13.192;2023-11-21T10:09:23;7.30;99.90
9810;DHT22;4944;52.514;13.192;2023-11-21T10:11:52;7.40;99.90
9810;DHT22;4944;52.514;13.192;2023-11-21T10:14:22;7.40;99.90
9810;DHT22;4944;52.514;13.192;2023-11-21T10:16:52;7.40;99.90
9810;DHT22;4944;52.514;13.192;2023-11-21T10:19:19;7.30;99.90
9810;DHT22;4944;52.514;13.192;2023-11-21T10:21:49;7.30;99.90
9810;DHT22;4944;52.514;13.192;2023-11-21T10:24:18;7.30;99.90
9810;DHT22;4944;52.514;13.192;2023-11-21T10:26:45;7.30;99.90
9810;DHT22;4944;52.514;13.192;2023-11-21T10:29:14;7.30;99.90
9810;DHT22;4944;52.514;13.192;2023-11-21T10:31:42;7.20;99.90
9810;DHT22;4944;52.514;13.192;2023-11-21T10:34:14;7.20;99.90
9810;DHT22;4944;52.514;13.192;2023-11-21T10:36:41;7.20;99.90
9810;DHT22;4944;52.514;13.192;2023-11-21T10:39:09;7.20;99.90
9810;DHT22;4944;52.514;13.192;2023-11-21T10:41:37;7.10;99.90
9810;DHT22;4944;52.514;13.192;2023-11-21T10:44:05;7.10;99.90
9810;DHT22;4944;52.514;13.192;2023-11-21T10:46:34;7.10;99.90
9810;DHT22;4944;52.514;13.192;2023-11-21T10:49:01;7.10;99.90
9810;DHT22;4944;52.514;13.192;2023-11-21T10:51:28;7.00;99.90
9810;DHT22;4944;52.514;13.192;2023-11-21T10:53:55;7.00;99.90
9810;DHT22;4944;52.514;13.192;2023-11-21T10:56:23;7.00;99.90
9810;DHT22;4944;52.514;13.192;2023-11-21T10:58:53;7.00;99.90
9810;DHT22;4944;52.514;13.192;2023-11-21T11:01:21;7.00;99.90
9810;DHT22;4944;52.514;13.192;2023-11-21T11:03:55;7.00;99.90
9810;DHT22;4944;52.514;13.192;2023-11-21T11:06:24;6.90;99.90
9810;DHT22;4944;52.514;13.192;2023-11-21T11:08:53;6.90;99.90
9810;DHT22;4944;52.514;13.192;2023-11-21T11:11:21;6.90;99.90
9810;DHT22;4944;52.514;13.192;2023-11-21T11:13:48;6.90;99.90
9810;DHT22;4944;52.514;13.192;2023-11-21T11:16:17;6.90;99.90
9810;DHT22;4944;52.514;13.192;2023-11-21T11:18:44;6.90;99.90
9810;DHT22;4944;52.514;13.192;2023-11-21T11:21:22;6.90;99.90
9810;DHT22;4944;52.514;13.192;2023-11-21T11:24:12;6.90;99.90
9810;DHT22;4944;52.514;13.192;2023-11-21T11:26:46;6.90;99.90
9810;DHT22;4944;52.514;13.192;2023-11-21T11:29:22;6.80;99.90
9810;DHT22;4944;52.514;13.192;2023-11-21T11:31:59;6.80;99.90
9810;DHT22;4944;52.514;13.192;2023-11-21T11:34:32;6.80;99.90
9810;DHT22;4944;52.514;13.192;2023-11-21T11:37:06;6.80;99.90
9810;DHT22;4944;52.514;13.192;2023-11-21T11:39:36;6.70;99.90
9810;DHT22;4944;52.514;13.192;2023-11-21T11:42:05;6.70;99.90
9810;DHT22;4944;52.514;13.192;2023-11-21T11:44:50;6.70;99.90
9810;DHT22;4944;52.514;13.192;2023-11-21T11:47:24;6.70;99.90
9810;DHT22;4944;52.514;13.192;2023-11-21T11:50:07;6.60;99.90
9810;DHT22;4944;52.514;13.192;2023-11-21T11:52:41;6.70;99.90
9810;DHT22;4944;52.514;13.192;2023-11-21T11:55:09;6.70;99.90
9810;DHT22;4944;52.514;13.192;2023-11-21T11:57:37;6.70;99.90
9810;DHT22;4944;52.514;13.192;2023-11-21T12:00:12;6.70;99.90
9810;DHT22;4944;52.514;13.192;2023-11-21T12:02:44;6.60;99.90
9810;DHT22;4944;52.514;13.192;2023-11-21T12:05:14;6.60;99.90
9810;DHT22;4944;52.514;13.192;2023-11-21T12:07:48;6.60;99.90
9810;DHT22;4944;52.514;13.192;2023-11-21T12:10:18;6.70;99.90
9810;DHT22;4944;52.514;13.192;2023-11-21T12:12:46;6.70;99.90
9810;DHT22;4944;52.514;13.192;2023-11-21T12:15:13;6.70;99.90
9810;DHT22;4944;52.514;13.192;2023-11-21T12:17:43;6.70;99.90
9810;DHT22;4944;52.514;13.192;2023-11-21T12:20:11;6.70;99.90
9810;DHT22;4944;52.514;13.192;2023-11-21T12:22:43;6.70;99.90
9810;DHT22;4944;52.514;13.192;2023-11-21T12:25:10;6.70;99.90
9810;DHT22;4944;52.514;13.192;2023-11-21T12:27:42;6.70;99.90
9810;DHT22;4944;52.514;13.192;2023-11-21T12:30:11;6.70;99.90
9810;DHT22;4944;52.514;13.192;2023-11-21T12:32:39;6.70;99.90
9810;DHT22;4944;52.514;13.192;2023-11-21T12:35:09;6.70;99.90
9810;DHT22;4944;52.514;13.192;2023-11-21T12:37:37;6.70;99.90
9810;DHT22;4944;52.514;13.192;2023-11-21T12:40:06;6.70;99.90
9810;DHT22;4944;52.514;13.192;2023-11-21T12:42:33;6.70;99.90
9810;DHT22;4944;52.514;13.192;2023-11-21T12:45:18;6.70;99.90
9810;DHT22;4944;52.514;13.192;2023-11-21T12:47:46;6.70;99.90
9810;DHT22;4944;52.514;13.192;2023-11-21T12:50:14;6.70;99.90
9810;DHT22;4944;52.514;13.192;2023-11-21T12:52:42;6.70;99.90
9810;DHT22;4944;52.514;13.192;2023-11-21T12:55:17;6.70;99.90
9810;DHT22;4944;52.514;13.192;2023-11-21T12:57:48;6.70;99.90
9810;DHT22;4944;52.514;13.192;2023-11-21T13:00:18;6.70;99.90
9810;DHT22;4944;52.514;13.192;2023-11-21T13:02:54;6.70;99.90
9810;DHT22;4944;52.514;13.192;2023-11-21T13:05:28;6.60;99.90
9810;DHT22;4944;52.514;13.192;2023-11-21T13:07:56;6.60;99.90
9810;DHT22;4944;52.514;13.192;2023-11-21T13:10:24;6.60;99.90
9810;DHT22;4944;52.514;13.192;2023-11-21T13:12:56;6.60;99.90
9810;DHT22;4944;52.514;13.192;2023-11-21T13:15:24;6.50;99.90
9810;DHT22;4944;52.514;13.192;2023-11-21T13:17:51;6.50;99.90
9810;DHT22;4944;52.514;13.192;2023-11-21T13:20:19;6.50;99.90
9810;DHT22;4944;52.514;13.192;2023-11-21T13:22:52;6.50;99.90
9810;DHT22;4944;52.514;13.192;2023-11-21T13:25:20;6.50;99.90
9810;DHT22;4944;52.514;13.192;2023-11-21T13:27:47;6.40;99.90
9810;DHT22;4944;52.514;13.192;2023-11-21T13:30:16;6.30;99.90
9810;DHT22;4944;52.514;13.192;2023-11-21T13:32:44;6.30;99.90
9810;DHT22;4944;52.514;13.192;2023-11-21T13:35:12;6.30;99.90
9810;DHT22;4944;52.514;13.192;2023-11-21T13:37:48;6.20;99.90
9810;DHT22;4944;52.514;13.192;2023-11-21T13:40:21;6.20;99.90
9810;DHT22;4944;52.514;13.192;2023-11-21T13:42:51;6.30;99.90
9810;DHT22;4944;52.514;13.192;2023-11-21T13:45:21;6.30;99.90
9810;DHT22;4944;52.514;13.192;2023-11-21T13:47:49;6.30;99.90
9810;DHT22;4944;52.514;13.192;2023-11-21T13:50:17;6.30;99.90
9810;DHT22;4944;52.514;13.192;2023-11-21T13:52:48;6.30;99.90
9810;DHT22;4944;52.514;13.192;2023-11-21T13:55:17;6.20;99.90
9810;DHT22;4944;52.514;13.192;2023-11-21T13:57:45;6.20;99.90
9810;DHT22;4944;52.514;13.192;2023-11-21T14:00:16;6.20;99.90
9810;DHT22;4944;52.514;13.192;2023-11-21T14:02:57;6.20;99.90
9810;DHT22;4944;52.514;13.192;2023-11-21T14:05:26;6.10;99.90
9810;DHT22;4944;52.514;13.192;2023-11-21T14:07:55;6.00;99.90
9810;DHT22;4944;52.514;13.192;2023-11-21T14:10:28;6.00;99.90
9810;DHT22;4944;52.514;13.192;2023-11-21T14:13:03;6.00;99.90
9810;DHT22;4944;52.514;13.192;2023-11-21T14:15:31;6.00;99.90
9810;DHT22;4944;52.514;13.192;2023-11-21T14:18:02;6.00;99.90
9810;DHT22;4944;52.514;13.192;2023-11-21T14:20:33;5.90;99.90
9810;DHT22;4944;52.514;13.192;2023-11-21T14:23:01;5.90;99.90
9810;DHT22;4944;52.514;13.192;2023-11-21T14:25:30;5.90;99.90
9810;DHT22;4944;52.514;13.192;2023-11-21T14:27:57;5.90;99.90
9810;DHT22;4944;52.514;13.192;2023-11-21T14:30:25;5.90;99.90
9810;DHT22;4944;52.514;13.192;2023-11-21T14:32:54;5.90;99.90
9810;DHT22;4944;52.514;13.192;2023-11-21T14:35:21;5.90;99.90
9810;DHT22;4944;52.514;13.192;2023-11-21T14:37:48;5.90;99.90
9810;DHT22;4944;52.514;13.192;2023-11-21T14:40:15;5.90;99.90
9810;DHT22;4944;52.514;13.192;2023-11-21T14:42:43;5.90;99.90
9810;DHT22;4944;52.514;13.192;2023-11-21T14:45:13;5.90;99.90
9810;DHT22;4944;52.514;13.192;2023-11-21T14:47:46;5.90;99.90
9810;DHT22;4944;52.514;13.192;2023-11-21T14:50:21;5.90;99.90
9810;DHT22;4944;52.514;13.192;2023-11-21T14:53:10;5.80;99.90
9810;DHT22;4944;52.514;13.192;2023-11-21T14:55:38;5.70;99.90
9810;DHT22;4944;52.514;13.192;2023-11-21T14:58:18;5.70;99.90
9810;DHT22;4944;52.514;13.192;2023-11-21T15:00:53;5.70;99.90
9810;DHT22;4944;52.514;13.192;2023-11-21T15:03:25;5.70;99.90
9810;DHT22;4944;52.514;13.192;2023-11-21T15:06:09;5.60;99.90
9810;DHT22;4944;52.514;13.192;2023-11-21T15:08:49;5.60;99.90
9810;DHT22;4944;52.514;13.192;2023-11-21T15:11:20;5.50;99.90
9810;DHT22;4944;52.514;13.192;2023-11-21T15:13:55;5.50;99.90
9810;DHT22;4944;52.514;13.192;2023-11-21T15:16:21;5.50;99.90
9810;DHT22;4944;52.514;13.192;2023-11-21T15:18:49;5.40;99.90
9810;DHT22;4944;52.514;13.192;2023-11-21T15:21:16;5.40;99.90
9810;DHT22;4944;52.514;13.192;2023-11-21T15:23:43;5.40;99.90
9810;DHT22;4944;52.514;13.192;2023-11-21T15:26:10;5.40;99.90
9810;DHT22;4944;52.514;13.192;2023-11-21T15:28:37;5.40;99.90
9810;DHT22;4944;52.514;13.192;2023-11-21T15:31:04;5.30;99.90
9810;DHT22;4944;52.514;13.192;2023-11-21T15:33:33;5.40;99.90
9810;DHT22;4944;52.514;13.192;2023-11-21T15:36:02;5.30;99.90
9810;DHT22;4944;52.514;13.192;2023-11-21T15:38:29;5.30;99.90
9810;DHT22;4944;52.514;13.192;2023-11-21T15:40:56;5.30;99.90
9810;DHT22;4944;52.514;13.192;2023-11-21T15:43:24;5.30;99.90
9810;DHT22;4944;52.514;13.192;2023-11-21T15:45:53;5.30;99.90
9810;DHT22;4944;52.514;13.192;2023-11-21T15:48:21;5.30;99.90
9810;DHT22;4944;52.514;13.192;2023-11-21T15:50:47;5.30;99.90
9810;DHT22;4944;52.514;13.192;2023-11-21T15:53:18;5.40;99.90
9810;DHT22;4944;52.514;13.192;2023-11-21T15:55:45;5.40;99.90
9810;DHT22;4944;52.514;13.192;2023-11-21T15:58:13;5.30;99.90
9810;DHT22;4944;52.514;13.192;2023-11-21T16:00:39;5.30;99.90
9810;DHT22;4944;52.514;13.192;2023-11-21T16:03:07;5.30;99.90
9810;DHT22;4944;52.514;13.192;2023-11-21T16:05:35;5.30;99.90
9810;DHT22;4944;52.514;13.192;2023-11-21T16:08:02;5.30;99.90
9810;DHT22;4944;52.514;13.192;2023-11-21T16:10:30;5.30;99.90